sensor_id;sensor_type;location;lat;lon;timestamp;temperature;humidity
21439;DHT22;10880;50.302;18.736;2023-02-24T00:01:54;12.90;57.60
21439;DHT22;10880;50.302;18.736;2023-02-24T00:04:35;12.90;57.60
21439;DHT22;10880;50.302;18.736;2023-02-24T00:07:04;12.90;57.60
21439;DHT22;10880;50.302;18.736;2023-02-24T00:09:31;12.90;57.60
21439;DHT22;10880;50.302;18.736;2023-02-24T00:12:11;12.90;57.60
21439;DHT22;10880;50.302;18.736;2023-02-24T00:14:43;12.90;57.70
21439;DHT22;10880;50.302;18.736;2023-02-24T00:17:11;12.90;57.70
21439;DHT22;10880;50.302;18.736;2023-02-24T00:19:41;12.90;57.70
21439;DHT22;10880;50.302;18.736;2023-02-24T00:22:08;12.90;57.60
21439;DHT22;10880;50.302;18.736;2023-02-24T00:24:36;12.80;57.60
21439;DHT22;10880;50.302;18.736;2023-02-24T00:27:04;12.80;57.30
21439;DHT22;10880;50.302;18.736;2023-02-24T00:29:34;12.80;57.60
21439;DHT22;10880;50.302;18.736;2023-02-24T00:32:03;12.80;57.60
21439;DHT22;10880;50.302;18.736;2023-02-24T00:34:35;12.80;57.40
21439;DHT22;10880;50.302;18.736;2023-02-24T00:37:04;12.80;57.60
21439;DHT22;10880;50.302;18.736;2023-02-24T00:39:34;12.80;57.60
21439;DHT22;10880;50.302;18.736;2023-02-24T00:42:04;12.80;57.60
21439;DHT22;10880;50.302;18.736;2023-02-24T00:44:37;12.80;57.60
21439;DHT22;10880;50.302;18.736;2023-02-24T00:47:07;12.80;57.60
21439;DHT22;10880;50.302;18.736;2023-02-24T00:49:40;12.70;57.50
21439;DHT22;10880;50.302;18.736;2023-02-24T00:52:14;12.70;57.30
21439;DHT22;10880;50.302;18.736;2023-02-24T00:54:44;12.70;57.40
21439;DHT22;10880;50.302;18.736;2023-02-24T00:57:11;12.70;57.50
21439;DHT22;10880;50.302;18.736;2023-02-24T00:59:38;12.70;57.30
21439;DHT22;10880;50.302;18.736;2023-02-24T01:02:05;12.70;57.60
21439;DHT22;10880;50.302;18.736;2023-02-24T01:04:35;12.70;57.60
21439;DHT22;10880;50.302;18.736;2023-02-24T01:07:03;12.70;57.50
21439;DHT22;10880;50.302;18.736;2023-02-24T01:09:36;12.70;57.60
21439;DHT22;10880;50.302;18.736;2023-02-24T01:12:09;12.70;57.70
21439;DHT22;10880;50.302;18.736;2023-02-24T01:14:55;12.70;57.60
21439;DHT22;10880;50.302;18.736;2023-02-24T01:17:22;12.70;57.20
21439;DHT22;10880;50.302;18.736;2023-02-24T01:19:50;12.60;57.50
21439;DHT22;10880;50.302;18.736;2023-02-24T01:22:19;12.60;57.50
21439;DHT22;10880;50.302;18.736;2023-02-24T01:24:47;12.60;57.70
21439;DHT22;10880;50.302;18.736;2023-02-24T01:27:15;12.60;57.60
21439;DHT22;10880;50.302;18.736;2023-02-24T01:29:46;12.60;57.70
21439;DHT22;10880;50.302;18.736;2023-02-24T01:32:16;12.60;57.70
21439;DHT22;10880;50.302;18.736;2023-02-24T01:34:44;12.60;57.70
21439;DHT22;10880;50.302;18.736;2023-02-24T01:37:11;12.60;57.60
21439;DHT22;10880;50.302;18.736;2023-02-24T01:39:42;12.60;57.70
21439;DHT22;10880;50.302;18.736;2023-02-24T01:42:18;12.60;57.80
21439;DHT22;10880;50.302;18.736;2023-02-24T01:47:14;12.60;57.70
21439;DHT22;10880;50.302;18.736;2023-02-24T01:49:43;12.60;57.90
21439;DHT22;10880;50.302;18.736;2023-02-24T01:52:25;12.60;57.90
21439;DHT22;10880;50.302;18.736;2023-02-24T01:54:58;12.60;57.70
21439;DHT22;10880;50.302;18.736;2023-02-24T01:57:32;12.60;57.90
21439;DHT22;10880;50.302;18.736;2023-02-24T02:00:02;12.60;58.00
21439;DHT22;10880;50.302;18.736;2023-02-24T02:02:47;12.60;57.90
21439;DHT22;10880;50.302;18.736;2023-02-24T02:05:16;12.60;57.90
21439;DHT22;10880;50.302;18.736;2023-02-24T02:07:44;12.60;57.80
21439;DHT22;10880;50.302;18.736;2023-02-24T02:10:11;12.60;57.90
21439;DHT22;10880;50.302;18.736;2023-02-24T02:12:40;12.60;57.90
21439;DHT22;10880;50.302;18.736;2023-02-24T02:15:15;12.60;57.90
21439;DHT22;10880;50.302;18.736;2023-02-24T02:18:17;12.60;57.90
21439;DHT22;10880;50.302;18.736;2023-02-24T02:29:23;11.70;57.50
21439;DHT22;10880;50.302;18.736;2023-02-24T02:35:12;12.70;57.50
21439;DHT22;10880;50.302;18.736;2023-02-24T02:40:47;12.70;58.00
21439;DHT22;10880;50.302;18.736;2023-02-24T02:43:32;12.60;57.90
21439;DHT22;10880;50.302;18.736;2023-02-24T02:51:15;12.60;57.60
21439;DHT22;10880;50.302;18.736;2023-02-24T02:54:16;12.60;58.20
21439;DHT22;10880;50.302;18.736;2023-02-24T02:56:53;12.60;58.20
21439;DHT22;10880;50.302;18.736;2023-02-24T02:59:25;12.60;58.30
21439;DHT22;10880;50.302;18.736;2023-02-24T03:01:56;12.60;58.30
21439;DHT22;10880;50.302;18.736;2023-02-24T03:05:00;12.60;58.30
21439;DHT22;10880;50.302;18.736;2023-02-24T03:07:32;12.60;58.30
21439;DHT22;10880;50.302;18.736;2023-02-24T03:10:07;12.60;58.30
21439;DHT22;10880;50.302;18.736;2023-02-24T03:12:39;12.60;58.40
21439;DHT22;10880;50.302;18.736;2023-02-24T03:15:09;12.60;58.50
21439;DHT22;10880;50.302;18.736;2023-02-24T03:17:42;12.60;58.60
21439;DHT22;10880;50.302;18.736;2023-02-24T03:20:41;12.60;58.70
21439;DHT22;10880;50.302;18.736;2023-02-24T03:23:17;12.60;58.80
21439;DHT22;10880;50.302;18.736;2023-02-24T03:26:09;12.60;58.70
21439;DHT22;10880;50.302;18.736;2023-02-24T03:29:06;12.60;58.80
21439;DHT22;10880;50.302;18.736;2023-02-24T03:31:38;12.50;58.80
21439;DHT22;10880;50.302;18.736;2023-02-24T03:34:13;12.50;58.80
21439;DHT22;10880;50.302;18.736;2023-02-24T03:36:45;12.50;58.80
21439;DHT22;10880;50.302;18.736;2023-02-24T03:39:12;12.50;58.90
21439;DHT22;10880;50.302;18.736;2023-02-24T03:42:01;12.50;58.90
21439;DHT22;10880;50.302;18.736;2023-02-24T03:44:31;12.50;59.00
21439;DHT22;10880;50.302;18.736;2023-02-24T03:47:03;12.50;58.90
21439;DHT22;10880;50.302;18.736;2023-02-24T03:49:30;12.50;59.10
21439;DHT22;10880;50.302;18.736;2023-02-24T04:03:42;12.50;60.10
21439;DHT22;10880;50.302;18.736;2023-02-24T04:06:44;12.50;59.60
21439;DHT22;10880;50.302;18.736;2023-02-24T04:09:37;12.50;59.70
21439;DHT22;10880;50.302;18.736;2023-02-24T04:12:15;12.50;59.70
21439;DHT22;10880;50.302;18.736;2023-02-24T04:15:10;12.40;59.70
21439;DHT22;10880;50.302;18.736;2023-02-24T04:18:02;12.50;60.10
21439;DHT22;10880;50.302;18.736;2023-02-24T04:20:36;12.40;60.10
21439;DHT22;10880;50.302;18.736;2023-02-24T04:23:09;12.40;59.90
21439;DHT22;10880;50.302;18.736;2023-02-24T04:25:42;12.40;60.00
21439;DHT22;10880;50.302;18.736;2023-02-24T04:28:11;12.40;60.20
21439;DHT22;10880;50.302;18.736;2023-02-24T04:30:44;12.40;60.30
21439;DHT22;10880;50.302;18.736;2023-02-24T04:33:13;12.40;60.30
21439;DHT22;10880;50.302;18.736;2023-02-24T04:35:43;12.40;60.00
21439;DHT22;10880;50.302;18.736;2023-02-24T04:38:11;12.40;60.30
21439;DHT22;10880;50.302;18.736;2023-02-24T04:40:40;12.40;60.30
21439;DHT22;10880;50.302;18.736;2023-02-24T04:43:08;12.30;60.20
21439;DHT22;10880;50.302;18.736;2023-02-24T04:45:34;12.40;60.70
21439;DHT22;10880;50.302;18.736;2023-02-24T04:48:02;12.30;60.10
21439;DHT22;10880;50.302;18.736;2023-02-24T04:50:34;12.30;60.50
21439;DHT22;10880;50.302;18.736;2023-02-24T04:53:15;12.30;60.80
21439;DHT22;10880;50.302;18.736;2023-02-24T04:55:46;12.30;60.90
21439;DHT22;10880;50.302;18.736;2023-02-24T04:58:19;12.30;61.00
21439;DHT22;10880;50.302;18.736;2023-02-24T05:00:49;12.30;61.20
21439;DHT22;10880;50.302;18.736;2023-02-24T05:03:18;12.30;61.30
21439;DHT22;10880;50.302;18.736;2023-02-24T05:05:54;12.30;61.20
21439;DHT22;10880;50.302;18.736;2023-02-24T05:08:29;12.30;62.00
21439;DHT22;10880;50.302;18.736;2023-02-24T05:10:58;12.30;61.30
21439;DHT22;10880;50.302;18.736;2023-02-24T05:13:31;12.30;61.40
21439;DHT22;10880;50.302;18.736;2023-02-24T05:16:04;12.20;61.20
21439;DHT22;10880;50.302;18.736;2023-02-24T05:18:34;12.30;61.60
21439;DHT22;10880;50.302;18.736;2023-02-24T05:21:09;12.20;61.20
21439;DHT22;10880;50.302;18.736;2023-02-24T05:23:56;12.20;61.40
21439;DHT22;10880;50.302;18.736;2023-02-24T05:26:35;12.20;61.50
21439;DHT22;10880;50.302;18.736;2023-02-24T05:29:04;12.30;61.70
21439;DHT22;10880;50.302;18.736;2023-02-24T05:31:34;12.20;61.50
21439;DHT22;10880;50.302;18.736;2023-02-24T05:34:04;12.20;61.50
21439;DHT22;10880;50.302;18.736;2023-02-24T05:36:39;12.20;61.60
21439;DHT22;10880;50.302;18.736;2023-02-24T05:39:06;12.20;61.60
21439;DHT22;10880;50.302;18.736;2023-02-24T05:41:39;12.20;61.70
21439;DHT22;10880;50.302;18.736;2023-02-24T05:44:11;12.20;61.60
21439;DHT22;10880;50.302;18.736;2023-02-24T05:46:40;12.20;61.60
21439;DHT22;10880;50.302;18.736;2023-02-24T05:49:18;12.20;61.60
21439;DHT22;10880;50.302;18.736;2023-02-24T05:51:55;12.20;61.70
21439;DHT22;10880;50.302;18.736;2023-02-24T05:56:59;12.20;61.50
21439;DHT22;10880;50.302;18.736;2023-02-24T05:59:26;12.20;61.70
21439;DHT22;10880;50.302;18.736;2023-02-24T06:02:00;12.20;61.50
21439;DHT22;10880;50.302;18.736;2023-02-24T06:04:27;12.20;61.60
21439;DHT22;10880;50.302;18.736;2023-02-24T06:07:13;12.20;61.40
21439;DHT22;10880;50.302;18.736;2023-02-24T06:09:48;12.30;61.80
21439;DHT22;10880;50.302;18.736;2023-02-24T06:12:29;12.20;61.50
21439;DHT22;10880;50.302;18.736;2023-02-24T06:14:56;12.20;61.60
21439;DHT22;10880;50.302;18.736;2023-02-24T06:17:23;12.20;61.50
21439;DHT22;10880;50.302;18.736;2023-02-24T06:19:52;12.20;61.50
21439;DHT22;10880;50.302;18.736;2023-02-24T06:22:21;12.20;61.70
21439;DHT22;10880;50.302;18.736;2023-02-24T06:24:49;12.20;61.80
21439;DHT22;10880;50.302;18.736;2023-02-24T06:27:17;12.20;61.70
21439;DHT22;10880;50.302;18.736;2023-02-24T06:29:53;12.20;61.70
21439;DHT22;10880;50.302;18.736;2023-02-24T06:32:25;12.20;61.70
21439;DHT22;10880;50.302;18.736;2023-02-24T06:34:52;12.20;61.70
21439;DHT22;10880;50.302;18.736;2023-02-24T06:37:19;12.20;62.00
21439;DHT22;10880;50.302;18.736;2023-02-24T06:39:46;12.20;62.00
21439;DHT22;10880;50.302;18.736;2023-02-24T06:42:14;12.10;62.00
21439;DHT22;10880;50.302;18.736;2023-02-24T06:44:42;12.20;62.00
21439;DHT22;10880;50.302;18.736;2023-02-24T06:47:11;12.10;61.90
21439;DHT22;10880;50.302;18.736;2023-02-24T06:49:43;12.10;62.10
21439;DHT22;10880;50.302;18.736;2023-02-24T06:52:10;12.10;61.80
21439;DHT22;10880;50.302;18.736;2023-02-24T06:54:46;12.10;62.30
21439;DHT22;10880;50.302;18.736;2023-02-24T06:57:13;12.20;62.40
21439;DHT22;10880;50.302;18.736;2023-02-24T06:59:40;12.10;62.20
21439;DHT22;10880;50.302;18.736;2023-02-24T07:02:08;12.10;62.10
21439;DHT22;10880;50.302;18.736;2023-02-24T07:04:35;12.20;62.30
21439;DHT22;10880;50.302;18.736;2023-02-24T07:07:09;12.20;62.30
21439;DHT22;10880;50.302;18.736;2023-02-24T07:09:39;12.20;62.40
21439;DHT22;10880;50.302;18.736;2023-02-24T07:12:10;12.20;62.40
21439;DHT22;10880;50.302;18.736;2023-02-24T07:14:40;12.20;62.40
21439;DHT22;10880;50.302;18.736;2023-02-24T07:17:10;12.20;62.10
21439;DHT22;10880;50.302;18.736;2023-02-24T07:19:39;12.20;62.40
21439;DHT22;10880;50.302;18.736;2023-02-24T07:22:07;12.20;62.20
21439;DHT22;10880;50.302;18.736;2023-02-24T07:24:36;12.20;62.70
21439;DHT22;10880;50.302;18.736;2023-02-24T07:27:05;12.20;62.70
21439;DHT22;10880;50.302;18.736;2023-02-24T07:29:33;12.20;62.80
21439;DHT22;10880;50.302;18.736;2023-02-24T07:32:09;12.20;62.80
21439;DHT22;10880;50.302;18.736;2023-02-24T07:34:37;12.20;63.00
21439;DHT22;10880;50.302;18.736;2023-02-24T07:37:08;12.20;62.80
21439;DHT22;10880;50.302;18.736;2023-02-24T07:39:36;12.20;62.90
21439;DHT22;10880;50.302;18.736;2023-02-24T07:42:05;12.20;62.90
21439;DHT22;10880;50.302;18.736;2023-02-24T07:44:42;12.20;63.00
21439;DHT22;10880;50.302;18.736;2023-02-24T07:47:10;12.20;62.60
21439;DHT22;10880;50.302;18.736;2023-02-24T07:49:38;12.20;62.50
21439;DHT22;10880;50.302;18.736;2023-02-24T07:52:06;12.30;63.10
21439;DHT22;10880;50.302;18.736;2023-02-24T07:54:33;12.30;63.00
21439;DHT22;10880;50.302;18.736;2023-02-24T07:57:00;12.30;63.20
21439;DHT22;10880;50.302;18.736;2023-02-24T07:59:29;12.30;63.10
21439;DHT22;10880;50.302;18.736;2023-02-24T08:01:58;12.30;63.20
21439;DHT22;10880;50.302;18.736;2023-02-24T08:04:28;12.40;63.10
21439;DHT22;10880;50.302;18.736;2023-02-24T08:06:55;12.40;63.40
21439;DHT22;10880;50.302;18.736;2023-02-24T08:09:26;12.40;63.50
21439;DHT22;10880;50.302;18.736;2023-02-24T08:12:08;12.40;63.40
21439;DHT22;10880;50.302;18.736;2023-02-24T08:14:35;12.40;63.20
21439;DHT22;10880;50.302;18.736;2023-02-24T08:17:11;12.40;63.20
21439;DHT22;10880;50.302;18.736;2023-02-24T08:19:40;12.40;63.40
21439;DHT22;10880;50.302;18.736;2023-02-24T08:22:10;12.50;63.60
21439;DHT22;10880;50.302;18.736;2023-02-24T08:24:56;12.40;63.40
21439;DHT22;10880;50.302;18.736;2023-02-24T08:27:27;12.40;63.90
21439;DHT22;10880;50.302;18.736;2023-02-24T08:30:00;12.40;63.60
21439;DHT22;10880;50.302;18.736;2023-02-24T08:32:39;12.40;63.40
21439;DHT22;10880;50.302;18.736;2023-02-24T08:35:14;12.50;63.80
21439;DHT22;10880;50.302;18.736;2023-02-24T08:37:47;12.50;64.60
21439;DHT22;10880;50.302;18.736;2023-02-24T08:40:24;12.50;63.70
21439;DHT22;10880;50.302;18.736;2023-02-24T08:42:59;12.50;63.80
21439;DHT22;10880;50.302;18.736;2023-02-24T08:45:31;12.50;63.90
21439;DHT22;10880;50.302;18.736;2023-02-24T08:47:59;12.50;63.90
21439;DHT22;10880;50.302;18.736;2023-02-24T08:50:44;12.50;64.60
21439;DHT22;10880;50.302;18.736;2023-02-24T08:53:14;12.50;63.80
21439;DHT22;10880;50.302;18.736;2023-02-24T08:55:45;12.60;63.60
21439;DHT22;10880;50.302;18.736;2023-02-24T08:58:11;12.60;64.20
21439;DHT22;10880;50.302;18.736;2023-02-24T09:00:44;12.60;63.90
21439;DHT22;10880;50.302;18.736;2023-02-24T09:03:20;12.60;63.50
21439;DHT22;10880;50.302;18.736;2023-02-24T09:06:04;12.60;64.80
21439;DHT22;10880;50.302;18.736;2023-02-24T09:08:33;12.60;64.20
21439;DHT22;10880;50.302;18.736;2023-02-24T09:11:14;12.60;64.00
21439;DHT22;10880;50.302;18.736;2023-02-24T09:13:45;12.70;63.60
21439;DHT22;10880;50.302;18.736;2023-02-24T09:16:21;12.60;63.90
21439;DHT22;10880;50.302;18.736;2023-02-24T09:18:49;12.70;64.00
21439;DHT22;10880;50.302;18.736;2023-02-24T09:21:36;12.70;64.10
21439;DHT22;10880;50.302;18.736;2023-02-24T09:24:20;12.70;64.00
21439;DHT22;10880;50.302;18.736;2023-02-24T09:26:55;12.70;64.10
21439;DHT22;10880;50.302;18.736;2023-02-24T09:29:25;12.70;64.00
21439;DHT22;10880;50.302;18.736;2023-02-24T09:32:14;12.70;64.60
21439;DHT22;10880;50.302;18.736;2023-02-24T09:34:42;12.70;64.10
21439;DHT22;10880;50.302;18.736;2023-02-24T09:37:12;12.70;64.70
21439;DHT22;10880;50.302;18.736;2023-02-24T09:39:52;12.70;64.70
21439;DHT22;10880;50.302;18.736;2023-02-24T09:42:21;12.70;64.60
21439;DHT22;10880;50.302;18.736;2023-02-24T09:44:54;12.70;64.60
21439;DHT22;10880;50.302;18.736;2023-02-24T09:47:23;12.70;64.80
21439;DHT22;10880;50.302;18.736;2023-02-24T09:52:47;12.70;64.90
21439;DHT22;10880;50.302;18.736;2023-02-24T09:55:34;12.80;65.10
21439;DHT22;10880;50.302;18.736;2023-02-24T09:58:26;12.80;65.10
21439;DHT22;10880;50.302;18.736;2023-02-24T10:06:41;12.90;65.60
21439;DHT22;10880;50.302;18.736;2023-02-24T10:11:59;13.00;65.30
21439;DHT22;10880;50.302;18.736;2023-02-24T10:19:59;13.10;65.90
21439;DHT22;10880;50.302;18.736;2023-02-24T10:23:04;13.10;66.20
21439;DHT22;10880;50.302;18.736;2023-02-24T10:25:39;13.20;66.30
21439;DHT22;10880;50.302;18.736;2023-02-24T10:28:33;13.20;66.50
21439;DHT22;10880;50.302;18.736;2023-02-24T10:31:29;13.30;66.50
21439;DHT22;10880;50.302;18.736;2023-02-24T10:34:10;13.30;66.50
21439;DHT22;10880;50.302;18.736;2023-02-24T10:36:40;13.40;66.30
21439;DHT22;10880;50.302;18.736;2023-02-24T10:39:20;13.40;66.20
21439;DHT22;10880;50.302;18.736;2023-02-24T10:41:58;13.40;66.90
21439;DHT22;10880;50.302;18.736;2023-02-24T10:44:45;13.50;66.90
21439;DHT22;10880;50.302;18.736;2023-02-24T10:47:38;13.50;67.70
21439;DHT22;10880;50.302;18.736;2023-02-24T10:50:40;13.60;66.90
21439;DHT22;10880;50.302;18.736;2023-02-24T10:53:14;13.70;66.70
21439;DHT22;10880;50.302;18.736;2023-02-24T10:56:12;13.70;67.10
21439;DHT22;10880;50.302;18.736;2023-02-24T10:59:03;13.80;67.10
21439;DHT22;10880;50.302;18.736;2023-02-24T11:02:01;13.80;66.70
21439;DHT22;10880;50.302;18.736;2023-02-24T11:04:38;13.90;66.50
21439;DHT22;10880;50.302;18.736;2023-02-24T11:07:23;13.90;66.10
21439;DHT22;10880;50.302;18.736;2023-02-24T11:10:12;14.00;66.00
21439;DHT22;10880;50.302;18.736;2023-02-24T11:12:44;14.00;66.00
21439;DHT22;10880;50.302;18.736;2023-02-24T11:15:46;14.00;65.00
21439;DHT22;10880;50.302;18.736;2023-02-24T11:18:33;14.00;65.00
21439;DHT22;10880;50.302;18.736;2023-02-24T11:21:03;14.00;65.20
21439;DHT22;10880;50.302;18.736;2023-02-24T11:23:55;14.00;64.80
21439;DHT22;10880;50.302;18.736;2023-02-24T11:26:34;14.00;65.50
21439;DHT22;10880;50.302;18.736;2023-02-24T11:29:33;14.00;65.30
21439;DHT22;10880;50.302;18.736;2023-02-24T11:32:16;13.90;65.60
21439;DHT22;10880;50.302;18.736;2023-02-24T11:35:08;13.90;65.70
21439;DHT22;10880;50.302;18.736;2023-02-24T11:37:42;13.70;65.50
21439;DHT22;10880;50.302;18.736;2023-02-24T11:40:23;14.00;65.70
21439;DHT22;10880;50.302;18.736;2023-02-24T11:42:54;14.00;66.00
21439;DHT22;10880;50.302;18.736;2023-02-24T11:45:53;14.00;65.90
21439;DHT22;10880;50.302;18.736;2023-02-24T11:51:09;14.10;65.80
21439;DHT22;10880;50.302;18.736;2023-02-24T11:56:33;14.20;65.80
21439;DHT22;10880;50.302;18.736;2023-02-24T11:59:12;14.20;65.50
21439;DHT22;10880;50.302;18.736;2023-02-24T12:04:59;14.20;65.50
21439;DHT22;10880;50.302;18.736;2023-02-24T12:07:35;14.20;65.30
21439;DHT22;10880;50.302;18.736;2023-02-24T12:10:22;14.20;65.20
21439;DHT22;10880;50.302;18.736;2023-02-24T12:15:43;14.20;64.90
21439;DHT22;10880;50.302;18.736;2023-02-24T12:18:33;14.20;65.00
21439;DHT22;10880;50.302;18.736;2023-02-24T12:21:50;14.20;65.00
21439;DHT22;10880;50.302;18.736;2023-02-24T12:23:51;14.20;64.80
21439;DHT22;10880;50.302;18.736;2023-02-24T12:26:20;14.20;64.50
21439;DHT22;10880;50.302;18.736;2023-02-24T12:29:03;14.20;64.70
21439;DHT22;10880;50.302;18.736;2023-02-24T12:34:21;14.20;64.70
21439;DHT22;10880;50.302;18.736;2023-02-24T12:39:40;14.20;64.70
21439;DHT22;10880;50.302;18.736;2023-02-24T12:42:19;14.20;64.80
21439;DHT22;10880;50.302;18.736;2023-02-24T12:47:53;14.20;64.20
21439;DHT22;10880;50.302;18.736;2023-02-24T12:50:52;14.20;65.00
21439;DHT22;10880;50.302;18.736;2023-02-24T12:53:22;14.20;65.00
21439;DHT22;10880;50.302;18.736;2023-02-24T12:58:45;14.20;65.00
21439;DHT22;10880;50.302;18.736;2023-02-24T13:04:35;14.20;64.80
21439;DHT22;10880;50.302;18.736;2023-02-24T13:12:28;14.20;64.80
21439;DHT22;10880;50.302;18.736;2023-02-24T13:15:05;14.20;65.10
21439;DHT22;10880;50.302;18.736;2023-02-24T13:17:48;14.20;65.10
21439;DHT22;10880;50.302;18.736;2023-02-24T13:20:45;14.30;64.50
21439;DHT22;10880;50.302;18.736;2023-02-24T13:23:20;14.20;64.90
21439;DHT22;10880;50.302;18.736;2023-02-24T13:25:51;14.20;65.00
21439;DHT22;10880;50.302;18.736;2023-02-24T13:28:26;14.20;65.00
21439;DHT22;10880;50.302;18.736;2023-02-24T13:31:20;14.20;65.10
21439;DHT22;10880;50.302;18.736;2023-02-24T13:33:49;14.30;65.00
21439;DHT22;10880;50.302;18.736;2023-02-24T13:36:23;14.30;64.90
21439;DHT22;10880;50.302;18.736;2023-02-24T13:39:19;14.30;65.10
21439;DHT22;10880;50.302;18.736;2023-02-24T13:41:49;14.30;65.10
21439;DHT22;10880;50.302;18.736;2023-02-24T13:44:27;14.20;64.30
21439;DHT22;10880;50.302;18.736;2023-02-24T13:50:03;14.30;64.40
21439;DHT22;10880;50.302;18.736;2023-02-24T13:58:40;14.30;65.10
21439;DHT22;10880;50.302;18.736;2023-02-24T14:01:16;14.20;65.00
21439;DHT22;10880;50.302;18.736;2023-02-24T14:06:33;14.20;65.10
21439;DHT22;10880;50.302;18.736;2023-02-24T14:09:04;14.20;64.70
21439;DHT22;10880;50.302;18.736;2023-02-24T14:11:34;14.20;64.70
21439;DHT22;10880;50.302;18.736;2023-02-24T14:14:02;14.20;65.20
21439;DHT22;10880;50.302;18.736;2023-02-24T14:16:33;14.20;65.10
21439;DHT22;10880;50.302;18.736;2023-02-24T14:19:11;14.20;65.20
21439;DHT22;10880;50.302;18.736;2023-02-24T14:21:47;14.10;65.20
21439;DHT22;10880;50.302;18.736;2023-02-24T14:24:14;14.20;66.00
21439;DHT22;10880;50.302;18.736;2023-02-24T14:26:50;14.20;64.60
21439;DHT22;10880;50.302;18.736;2023-02-24T14:29:21;14.20;65.00
21439;DHT22;10880;50.302;18.736;2023-02-24T14:31:53;14.20;64.60
21439;DHT22;10880;50.302;18.736;2023-02-24T14:34:23;14.20;65.20
21439;DHT22;10880;50.302;18.736;2023-02-24T14:36:53;14.20;65.20
21439;DHT22;10880;50.302;18.736;2023-02-24T14:39:40;14.20;64.70
21439;DHT22;10880;50.302;18.736;2023-02-24T14:42:14;14.20;65.20
21439;DHT22;10880;50.302;18.736;2023-02-24T14:44:47;14.20;64.60
21439;DHT22;10880;50.302;18.736;2023-02-24T14:47:15;14.30;65.10
21439;DHT22;10880;50.302;18.736;2023-02-24T14:49:58;14.20;64.90
21439;DHT22;10880;50.302;18.736;2023-02-24T14:52:41;14.20;65.00
21439;DHT22;10880;50.302;18.736;2023-02-24T14:58:28;14.20;64.80
21439;DHT22;10880;50.302;18.736;2023-02-24T15:03:34;14.20;64.40
21439;DHT22;10880;50.302;18.736;2023-02-24T15:06:12;14.20;64.60
21439;DHT22;10880;50.302;18.736;2023-02-24T15:08:47;14.20;64.60
21439;DHT22;10880;50.302;18.736;2023-02-24T15:14:13;14.20;63.80
21439;DHT22;10880;50.302;18.736;2023-02-24T15:16:44;14.20;64.40
21439;DHT22;10880;50.302;18.736;2023-02-24T15:19:37;14.20;64.40
21439;DHT22;10880;50.302;18.736;2023-02-24T15:24:52;14.10;64.60
21439;DHT22;10880;50.302;18.736;2023-02-24T15:27:25;14.20;64.50
21439;DHT22;10880;50.302;18.736;2023-02-24T15:30:05;14.20;64.60
21439;DHT22;10880;50.302;18.736;2023-02-24T15:32:35;14.10;64.70
21439;DHT22;10880;50.302;18.736;2023-02-24T15:35:03;14.10;64.50
21439;DHT22;10880;50.302;18.736;2023-02-24T15:37:39;14.10;64.50
21439;DHT22;10880;50.302;18.736;2023-02-24T15:40:21;14.10;64.50
21439;DHT22;10880;50.302;18.736;2023-02-24T15:43:16;14.10;64.60
21439;DHT22;10880;50.302;18.736;2023-02-24T15:45:38;14.10;64.40
21439;DHT22;10880;50.302;18.736;2023-02-24T15:48:23;14.10;64.10
21439;DHT22;10880;50.302;18.736;2023-02-24T15:50:54;14.10;64.30
21439;DHT22;10880;50.302;18.736;2023-02-24T15:53:21;14.00;64.20
21439;DHT22;10880;50.302;18.736;2023-02-24T15:55:48;14.00;63.60
21439;DHT22;10880;50.302;18.736;2023-02-24T15:58:17;14.00;64.30
21439;DHT22;10880;50.302;18.736;2023-02-24T16:00:45;13.90;64.20
21439;DHT22;10880;50.302;18.736;2023-02-24T16:03:12;13.90;63.60
21439;DHT22;10880;50.302;18.736;2023-02-24T16:05:38;13.90;63.70
21439;DHT22;10880;50.302;18.736;2023-02-24T16:08:10;13.80;63.80
21439;DHT22;10880;50.302;18.736;2023-02-24T16:10:38;13.80;64.20
21439;DHT22;10880;50.302;18.736;2023-02-24T16:13:12;13.80;64.20
21439;DHT22;10880;50.302;18.736;2023-02-24T16:15:40;13.70;64.20
21439;DHT22;10880;50.302;18.736;2023-02-24T16:18:13;13.70;64.20
21439;DHT22;10880;50.302;18.736;2023-02-24T16:20:47;13.60;64.20
21439;DHT22;10880;50.302;18.736;2023-02-24T16:23:24;13.60;64.30
21439;DHT22;10880;50.302;18.736;2023-02-24T16:25:56;13.60;64.20
21439;DHT22;10880;50.302;18.736;2023-02-24T16:28:24;13.60;64.30
21439;DHT22;10880;50.302;18.736;2023-02-24T16:30:52;13.60;64.30
21439;DHT22;10880;50.302;18.736;2023-02-24T16:33:19;13.50;64.00
21439;DHT22;10880;50.302;18.736;2023-02-24T16:35:49;13.50;64.00
21439;DHT22;10880;50.302;18.736;2023-02-24T16:38:19;13.50;64.20
21439;DHT22;10880;50.302;18.736;2023-02-24T16:40:48;13.50;64.20
21439;DHT22;10880;50.302;18.736;2023-02-24T16:43:15;12.90;63.80
21439;DHT22;10880;50.302;18.736;2023-02-24T16:45:43;13.50;64.00
21439;DHT22;10880;50.302;18.736;2023-02-24T16:48:22;13.50;64.30
21439;DHT22;10880;50.302;18.736;2023-02-24T16:50:50;13.50;64.40
21439;DHT22;10880;50.302;18.736;2023-02-24T16:53:19;13.50;64.10
21439;DHT22;10880;50.302;18.736;2023-02-24T16:55:46;13.50;64.40
21439;DHT22;10880;50.302;18.736;2023-02-24T16:58:15;13.40;64.00
21439;DHT22;10880;50.302;18.736;2023-02-24T17:00:45;13.40;64.20
21439;DHT22;10880;50.302;18.736;2023-02-24T17:03:47;13.40;64.40
21439;DHT22;10880;50.302;18.736;2023-02-24T17:06:17;13.50;64.50
21439;DHT22;10880;50.302;18.736;2023-02-24T17:08:43;13.40;64.40
21439;DHT22;10880;50.302;18.736;2023-02-24T17:11:19;13.40;64.20
21439;DHT22;10880;50.302;18.736;2023-02-24T17:13:48;13.40;64.40
21439;DHT22;10880;50.302;18.736;2023-02-24T17:16:15;13.40;64.40
21439;DHT22;10880;50.302;18.736;2023-02-24T17:18:41;13.40;63.70
21439;DHT22;10880;50.302;18.736;2023-02-24T17:21:11;13.40;64.70
21439;DHT22;10880;50.302;18.736;2023-02-24T17:23:39;13.40;64.20
21439;DHT22;10880;50.302;18.736;2023-02-24T17:26:05;13.30;64.00
21439;DHT22;10880;50.302;18.736;2023-02-24T17:28:32;13.30;63.60
21439;DHT22;10880;50.302;18.736;2023-02-24T17:30:59;13.30;63.50
21439;DHT22;10880;50.302;18.736;2023-02-24T17:33:25;13.20;63.30
21439;DHT22;10880;50.302;18.736;2023-02-24T17:35:52;13.20;63.30
21439;DHT22;10880;50.302;18.736;2023-02-24T17:38:20;13.20;63.30
21439;DHT22;10880;50.302;18.736;2023-02-24T17:40:51;13.20;63.80
21439;DHT22;10880;50.302;18.736;2023-02-24T17:43:17;13.10;63.50
21439;DHT22;10880;50.302;18.736;2023-02-24T17:45:45;13.10;63.20
21439;DHT22;10880;50.302;18.736;2023-02-24T17:48:16;13.10;63.80